Time;durP1;ratioP1;P1;durP2;ratioP2;P2;SDS_P1;SDS_P2;PMS_P1;PMS_P2;Temp;Humidity;BMP_temperature;BMP_pressure;BME280_temperature;BME280_humidity;BME280_pressure;Samples;Min_cycle;Max_cycle;Signal;HPM_P1;HPM_P2
2023/02/09 00:01:52;;;;;;;7.63;3.47;;;1.40;99.90;;;;;;5044057;28;20409;-72
2023/02/09 00:04:18;;;;;;;8.93;3.58;;;1.40;99.90;;;;;;5040312;28;20091;-71
2023/02/09 00:06:43;;;;;;;9.00;3.80;;;1.30;99.90;;;;;;5045551;28;20040;-73
2023/02/09 00:09:09;;;;;;;9.10;3.65;;;1.30;99.90;;;;;;5042305;28;20040;-72
2023/02/09 00:14:19;;;;;;;7.55;3.13;;;1.30;99.90;;;;;;5043307;28;20059;-72
2023/02/09 00:16:45;;;;;;;11.10;3.80;;;1.30;99.90;;;;;;5044491;28;20054;-72
2023/02/09 00:19:12;;;;;;;8.40;3.47;;;1.30;99.90;;;;;;5045667;28;20033;-72
2023/02/09 00:21:39;;;;;;;8.85;3.60;;;1.30;99.90;;;;;;5045817;28;20041;-71
2023/02/09 00:24:06;;;;;;;8.98;4.10;;;1.30;99.90;;;;;;5045169;28;20036;-72
2023/02/09 00:26:32;;;;;;;10.15;4.38;;;1.30;99.90;;;;;;5045610;28;20047;-72
2023/02/09 00:28:58;;;;;;;9.13;3.45;;;1.20;99.90;;;;;;5043441;28;20413;-72
2023/02/09 00:31:24;;;;;;;8.30;3.88;;;1.20;99.90;;;;;;5045158;28;20037;-72
2023/02/09 00:33:49;;;;;;;9.70;3.67;;;1.20;99.90;;;;;;5044686;28;20115;-72
2023/02/09 00:36:15;;;;;;;8.93;4.20;;;1.20;99.90;;;;;;5045272;28;20045;-72
2023/02/09 00:38:42;;;;;;;8.35;4.13;;;1.10;99.90;;;;;;5046042;28;20037;-71
2023/02/09 00:41:08;;;;;;;12.63;3.80;;;1.10;99.90;;;;;;5040540;28;20506;-72
2023/02/09 00:43:33;;;;;;;9.90;3.72;;;1.10;99.90;;;;;;5044907;28;20764;-71
2023/02/09 00:45:59;;;;;;;8.23;3.80;;;1.10;99.90;;;;;;5044392;28;20040;-72
2023/02/09 00:48:25;;;;;;;8.25;3.25;;;1.10;99.90;;;;;;5044781;28;20061;-72
2023/02/09 00:50:52;;;;;;;12.82;3.78;;;1.10;99.90;;;;;;5043807;28;20468;-72
2023/02/09 00:53:18;;;;;;;6.63;3.20;;;1.10;99.90;;;;;;5045155;28;20132;-72
2023/02/09 00:55:44;;;;;;;8.95;4.07;;;1.10;99.90;;;;;;5043486;28;20686;-73
2023/02/09 00:58:10;;;;;;;11.73;3.67;;;1.10;99.90;;;;;;5046125;28;20056;-72
2023/02/09 01:00:36;;;;;;;10.30;4.40;;;1.10;99.90;;;;;;5045626;28;20036;-72
2023/02/09 01:03:01;;;;;;;8.35;3.15;;;1.10;99.90;;;;;;5043269;28;20029;-71
2023/02/09 01:05:27;;;;;;;14.18;4.28;;;1.10;99.90;;;;;;5045221;28;20401;-72
2023/02/09 01:07:52;;;;;;;8.52;3.67;;;1.10;99.90;;;;;;5043854;28;20036;-72
2023/02/09 01:10:18;;;;;;;9.63;4.57;;;1.10;99.90;;;;;;5045113;28;20478;-72
2023/02/09 01:12:44;;;;;;;11.93;3.78;;;1.10;99.90;;;;;;5044577;28;20029;-72
2023/02/09 01:15:10;;;;;;;9.43;3.58;;;1.10;99.90;;;;;;5045155;28;20026;-71
2023/02/09 01:17:36;;;;;;;8.82;3.75;;;1.10;99.90;;;;;;5040712;28;20033;-71
2023/02/09 01:20:03;;;;;;;10.23;3.55;;;1.10;99.90;;;;;;5036495;28;20041;-72
2023/02/09 01:22:29;;;;;;;11.15;4.07;;;1.10;99.90;;;;;;5040111;28;20036;-73
2023/02/09 01:24:55;;;;;;;8.80;3.85;;;1.10;99.90;;;;;;5038341;28;20448;-72
2023/02/09 01:27:20;;;;;;;10.55;3.92;;;1.00;99.90;;;;;;5051196;28;20037;-72
2023/02/09 01:29:46;;;;;;;6.30;3.63;;;1.00;99.90;;;;;;5044912;28;20029;-72
2023/02/09 01:32:11;;;;;;;8.35;3.63;;;1.00;99.90;;;;;;5050521;28;20416;-73
2023/02/09 01:34:37;;;;;;;9.68;3.75;;;1.00;99.90;;;;;;5046410;28;20056;-71
2023/02/09 01:37:03;;;;;;;10.80;3.92;;;1.00;99.90;;;;;;5047026;28;20033;-72
2023/02/09 01:39:29;;;;;;;9.15;3.55;;;1.00;99.90;;;;;;5051279;28;20045;-72
2023/02/09 01:41:54;;;;;;;15.85;4.32;;;0.90;99.90;;;;;;5053133;28;20091;-72
2023/02/09 01:44:20;;;;;;;11.80;3.75;;;0.90;99.90;;;;;;5054672;28;20076;-71
2023/02/09 01:46:46;;;;;;;11.98;4.28;;;1.00;99.90;;;;;;5052841;28;20033;-72
2023/02/09 01:49:16;;;;;;;9.63;3.58;;;0.90;99.90;;;;;;5053223;28;20850;-72
2023/02/09 01:51:46;;;;;;;10.27;4.70;;;0.90;99.90;;;;;;5048335;28;20033;-74
2023/02/09 01:54:17;;;;;;;14.63;6.20;;;0.90;99.90;;;;;;5053849;28;20041;-72
2023/02/09 01:56:47;;;;;;;9.18;3.65;;;0.80;99.90;;;;;;5054421;28;20037;-72
2023/02/09 01:59:14;;;;;;;8.50;3.53;;;0.80;99.90;;;;;;5050311;28;20079;-72
2023/02/09 02:01:40;;;;;;;13.55;3.85;;;0.80;99.90;;;;;;5046259;28;20047;-72
2023/02/09 02:04:07;;;;;;;11.02;3.95;;;0.80;99.90;;;;;;5042055;28;20037;-72
2023/02/09 02:06:32;;;;;;;8.20;3.75;;;0.70;99.90;;;;;;5043429;28;20063;-71
2023/02/09 02:09:01;;;;;;;8.65;3.67;;;0.70;99.90;;;;;;5045330;28;20481;-72
2023/02/09 02:11:28;;;;;;;7.43;3.40;;;0.60;99.90;;;;;;5041567;28;20041;-71
2023/02/09 02:13:55;;;;;;;9.80;4.05;;;0.60;99.90;;;;;;5040609;28;20067;-72
2023/02/09 02:16:47;;;;;;;8.50;3.08;;;0.60;99.90;;;;;;5049781;28;20056;-71
2023/02/09 02:19:44;;;;;;;8.30;3.45;;;0.60;99.90;;;;;;5043253;28;20580;-72
2023/02/09 02:22:25;;;;;;;6.93;2.67;;;0.60;99.90;;;;;;5043403;28;20090;-72
2023/02/09 02:25:12;;;;;;;8.07;2.70;;;0.60;99.90;;;;;;5042012;28;20068;-71
2023/02/09 02:27:43;;;;;;;6.55;3.42;;;0.60;99.90;;;;;;5042809;28;20116;-72
2023/02/09 02:30:24;;;;;;;10.07;3.63;;;0.60;99.90;;;;;;5043550;28;20049;-72
2023/02/09 02:33:04;;;;;;;11.40;3.58;;;0.60;99.90;;;;;;5041184;28;20037;-71
2023/02/09 02:35:53;;;;;;;9.80;3.30;;;0.60;99.90;;;;;;5036297;28;20110;-72
2023/02/09 02:38:38;;;;;;;9.25;3.58;;;0.60;99.90;;;;;;5045252;28;20056;-72
2023/02/09 02:41:12;;;;;;;12.63;3.67;;;0.60;99.90;;;;;;5039834;28;20052;-71
2023/02/09 02:43:53;;;;;;;9.57;3.80;;;0.60;99.90;;;;;;5041325;28;20052;-72
2023/02/09 02:46:41;;;;;;;9.15;3.78;;;0.50;99.90;;;;;;5040200;28;20116;-73
2023/02/09 02:49:14;;;;;;;7.90;3.80;;;0.50;99.90;;;;;;5034896;28;20101;-71
2023/02/09 02:51:42;;;;;;;10.55;3.92;;;0.40;99.90;;;;;;5039923;28;20406;-72
2023/02/09 02:54:14;;;;;;;7.35;3.25;;;0.40;99.90;;;;;;5029882;28;20033;-72
2023/02/09 02:56:48;;;;;;;10.35;3.70;;;0.40;99.90;;;;;;5046781;28;20086;-71
2023/02/09 02:59:20;;;;;;;8.75;3.40;;;0.40;99.90;;;;;;5043453;28;20033;-71
2023/02/09 03:01:57;;;;;;;10.75;3.72;;;0.40;99.90;;;;;;5043057;28;20122;-73
2023/02/09 03:04:25;;;;;;;12.13;3.95;;;0.40;99.90;;;;;;5034834;28;20544;-72
2023/02/09 03:06:51;;;;;;;8.15;3.92;;;0.40;99.90;;;;;;5036138;28;20045;-71
2023/02/09 03:09:17;;;;;;;12.18;3.70;;;0.40;99.90;;;;;;5037212;28;20038;-72
2023/02/09 03:11:48;;;;;;;7.82;4.00;;;0.30;99.90;;;;;;5043950;28;20043;-72
2023/02/09 03:14:26;;;;;;;;;;;0.40;99.90;;;;;;5042911;28;20523;-72
2023/02/09 03:17:05;;;;;;;10.98;3.42;;;0.40;99.90;;;;;;5036993;28;19920;-72
2023/02/09 03:19:42;;;;;;;9.77;3.45;;;0.40;99.90;;;;;;5036739;28;20049;-71
2023/02/09 03:22:34;;;;;;;15.82;4.07;;;0.40;99.90;;;;;;5042587;28;20033;-72
2023/02/09 03:25:18;;;;;;;8.57;3.92;;;0.40;99.90;;;;;;5037492;28;20576;-72
2023/02/09 03:27:52;;;;;;;8.45;4.55;;;0.40;99.90;;;;;;5047342;28;20048;-75
2023/02/09 03:30:19;;;;;;;10.80;3.47;;;0.40;99.90;;;;;;5043176;28;20049;-72
2023/02/09 03:32:45;;;;;;;9.20;3.65;;;0.40;99.90;;;;;;5041586;28;20136;-73
2023/02/09 03:35:15;;;;;;;9.90;3.20;;;0.30;99.90;;;;;;5040013;28;20033;-71
2023/02/09 03:37:41;;;;;;;14.07;3.95;;;0.40;99.90;;;;;;5042263;28;20064;-72
2023/02/09 03:40:06;;;;;;;12.50;3.80;;;0.40;99.90;;;;;;5042577;28;20150;-71
2023/02/09 03:42:32;;;;;;;11.77;3.50;;;0.30;99.90;;;;;;5039106;28;20033;-71
2023/02/09 03:44:58;;;;;;;11.25;3.88;;;0.40;99.90;;;;;;5054483;28;20119;-71
2023/02/09 03:47:23;;;;;;;7.32;3.17;;;0.30;99.90;;;;;;5047989;28;20040;-71
2023/02/09 03:49:49;;;;;;;9.07;3.40;;;0.30;99.90;;;;;;5047919;28;20061;-71
2023/02/09 03:52:16;;;;;;;8.90;3.45;;;0.30;99.90;;;;;;5057419;28;20553;-72
2023/02/09 03:54:41;;;;;;;7.53;3.60;;;0.30;99.90;;;;;;5048795;28;20417;-72
2023/02/09 03:57:09;;;;;;;8.93;3.85;;;0.30;99.90;;;;;;5056240;28;20029;-71
2023/02/09 03:59:35;;;;;;;10.10;4.22;;;0.30;99.90;;;;;;5053310;28;20063;-71
2023/02/09 04:02:03;;;;;;;9.02;3.53;;;0.30;99.90;;;;;;5042799;28;20037;-72
2023/02/09 04:04:30;;;;;;;10.73;3.90;;;0.30;99.90;;;;;;5041098;28;20033;-71
2023/02/09 04:06:55;;;;;;;9.65;3.97;;;0.30;99.90;;;;;;5038607;28;20043;-71
2023/02/09 04:09:21;;;;;;;7.53;3.40;;;0.30;99.90;;;;;;5038367;28;20045;-71
2023/02/09 04:11:47;;;;;;;8.43;3.30;;;0.30;99.90;;;;;;5038089;28;20037;-71
2023/02/09 04:14:14;;;;;;;8.27;3.22;;;0.30;99.90;;;;;;5041207;28;20040;-72
2023/02/09 04:16:39;;;;;;;10.15;4.00;;;0.20;99.90;;;;;;5042329;28;20037;-71
2023/02/09 04:19:05;;;;;;;8.85;3.58;;;0.30;99.90;;;;;;5039202;28;20038;-71
2023/02/09 04:21:31;;;;;;;10.70;4.65;;;0.20;99.90;;;;;;5040508;28;20073;-71
2023/02/09 04:23:57;;;;;;;10.30;3.63;;;0.20;99.90;;;;;;5041081;28;20052;-72
2023/02/09 04:26:23;;;;;;;11.40;3.72;;;0.30;99.90;;;;;;5043542;28;20040;-71
2023/02/09 04:28:48;;;;;;;10.48;3.47;;;0.20;99.90;;;;;;5041521;28;20033;-72
2023/02/09 04:31:14;;;;;;;10.48;3.83;;;0.30;99.90;;;;;;5037209;28;20033;-71
2023/02/09 04:33:40;;;;;;;9.07;3.40;;;0.30;99.90;;;;;;5030655;28;21567;-72
2023/02/09 04:36:06;;;;;;;9.00;3.55;;;0.30;99.90;;;;;;5039583;28;20117;-71
2023/02/09 04:38:32;;;;;;;7.43;3.05;;;0.30;99.90;;;;;;5044049;28;21273;-71
2023/02/09 04:40:59;;;;;;;6.30;3.05;;;0.30;99.90;;;;;;5039174;28;20037;-72
2023/02/09 04:43:24;;;;;;;7.65;2.78;;;0.30;99.90;;;;;;5038924;28;20079;-71
2023/02/09 04:45:50;;;;;;;9.35;3.42;;;0.20;99.90;;;;;;5038259;28;20497;-73
2023/02/09 04:48:21;;;;;;;8.75;3.60;;;0.30;99.90;;;;;;5039833;28;20037;-72
2023/02/09 04:50:47;;;;;;;8.43;3.58;;;0.30;99.90;;;;;;5033288;28;20045;-72
2023/02/09 04:53:13;;;;;;;12.98;4.07;;;0.30;99.90;;;;;;5033027;28;20132;-72
2023/02/09 04:55:39;;;;;;;11.20;4.07;;;0.30;99.90;;;;;;5040987;28;20040;-71
2023/02/09 05:00:49;;;;;;;7.25;3.00;;;0.30;99.90;;;;;;5037856;28;20055;-71
2023/02/09 05:03:15;;;;;;;9.02;3.35;;;0.30;99.90;;;;;;5040748;28;20033;-72
2023/02/09 05:05:41;;;;;;;7.90;3.10;;;0.30;99.90;;;;;;5039581;28;20528;-72
2023/02/09 05:08:07;;;;;;;10.52;3.33;;;0.30;99.90;;;;;;5037035;28;20513;-71
2023/02/09 05:10:33;;;;;;;5.78;2.95;;;0.20;99.90;;;;;;5038862;28;20048;-71
2023/02/09 05:12:59;;;;;;;7.65;3.15;;;0.30;99.90;;;;;;5041201;28;20029;-72
2023/02/09 05:15:25;;;;;;;10.77;3.28;;;0.30;99.90;;;;;;5038182;28;20047;-71
2023/02/09 05:17:50;;;;;;;10.18;3.03;;;0.30;99.90;;;;;;5040993;28;20059;-72
2023/02/09 05:20:16;;;;;;;11.63;3.72;;;0.30;99.90;;;;;;5039708;28;20028;-72
2023/02/09 05:22:42;;;;;;;16.38;4.13;;;0.30;99.90;;;;;;5032913;28;20048;-72
2023/02/09 05:25:08;;;;;;;8.95;2.90;;;0.20;99.90;;;;;;5039465;28;20033;-71
2023/02/09 05:27:33;;;;;;;8.40;3.35;;;0.30;99.90;;;;;;5043879;28;20086;-72
2023/02/09 05:29:59;;;;;;;6.05;2.50;;;0.20;99.90;;;;;;5040851;28;20116;-71
2023/02/09 05:32:25;;;;;;;9.60;3.35;;;0.20;99.90;;;;;;5042515;28;20041;-71
2023/02/09 05:34:50;;;;;;;6.38;3.00;;;0.20;99.90;;;;;;5038458;28;20347;-72
2023/02/09 05:37:16;;;;;;;6.88;2.67;;;0.10;99.90;;;;;;5021525;28;20120;-71
2023/02/09 05:39:41;;;;;;;10.35;2.88;;;0.10;99.90;;;;;;5029786;28;20358;-71
2023/02/09 05:42:14;;;;;;;7.47;3.63;;;0.10;99.90;;;;;;5043911;28;20158;-71
2023/02/09 05:44:40;;;;;;;9.88;3.17;;;0.10;99.90;;;;;;5026508;28;20053;-71
2023/02/09 05:47:05;;;;;;;8.63;3.38;;;0.10;99.90;;;;;;5023961;28;20034;-72
2023/02/09 05:49:31;;;;;;;9.73;3.78;;;0.00;99.90;;;;;;5024313;28;20049;-71
2023/02/09 05:51:57;;;;;;;6.07;2.83;;;0.00;99.90;;;;;;5024366;28;20041;-71
2023/02/09 05:54:22;;;;;;;11.75;2.95;;;0.00;99.90;;;;;;5023735;28;20048;-71
2023/02/09 05:56:48;;;;;;;8.88;3.20;;;0.00;99.90;;;;;;5022761;28;20068;-71
2023/02/09 05:59:13;;;;;;;10.07;2.70;;;0.00;99.90;;;;;;5024397;28;20164;-71
2023/02/09 06:01:39;;;;;;;9.38;3.35;;;0.00;99.90;;;;;;5024389;28;20045;-71
2023/02/09 06:04:05;;;;;;;11.40;3.92;;;0.00;99.90;;;;;;5023781;28;20568;-72
2023/02/09 06:06:31;;;;;;;8.25;3.80;;;-0.10;99.90;;;;;;5022775;28;20033;-72
2023/02/09 06:08:56;;;;;;;8.30;3.42;;;-0.10;99.90;;;;;;5023201;28;20080;-72
2023/02/09 06:11:22;;;;;;;10.68;3.75;;;-0.10;99.90;;;;;;5024499;28;20041;-72
2023/02/09 06:13:48;;;;;;;10.05;3.30;;;-0.10;99.90;;;;;;5025276;28;20520;-72
2023/02/09 06:16:13;;;;;;;7.40;2.97;;;-0.20;99.90;;;;;;5019759;28;20099;-73
2023/02/09 06:18:39;;;;;;;7.47;3.17;;;-0.10;99.90;;;;;;5020021;28;20129;-71
2023/02/09 06:21:05;;;;;;;11.85;3.63;;;-0.10;99.90;;;;;;5022767;28;20044;-72
2023/02/09 06:23:30;;;;;;;8.60;3.35;;;-0.10;99.90;;;;;;5021693;28;20025;-73
2023/02/09 06:25:56;;;;;;;8.30;3.65;;;-0.10;99.90;;;;;;5023668;28;20033;-72
2023/02/09 06:28:22;;;;;;;8.20;3.25;;;-0.10;99.90;;;;;;5020710;28;20091;-71
2023/02/09 06:30:52;;;;;;;9.32;3.50;;;-0.10;99.90;;;;;;5025476;28;20061;-70
2023/02/09 06:33:18;;;;;;;7.95;3.47;;;-0.20;99.90;;;;;;5022120;28;20036;-71
2023/02/09 06:35:45;;;;;;;10.27;4.28;;;-0.20;99.90;;;;;;5021244;28;20547;-71
2023/02/09 06:38:11;;;;;;;9.13;3.15;;;-0.20;99.90;;;;;;5028725;28;20033;-72
2023/02/09 06:40:36;;;;;;;11.38;4.13;;;-0.20;99.90;;;;;;5041675;28;20091;-71
2023/02/09 06:43:02;;;;;;;11.00;3.85;;;-0.20;99.90;;;;;;5027762;28;20029;-73
2023/02/09 06:45:28;;;;;;;5.90;2.75;;;-0.20;99.90;;;;;;5037666;28;20129;-73
2023/02/09 06:47:53;;;;;;;8.15;3.28;;;-0.20;99.90;;;;;;5042638;28;20033;-71
2023/02/09 06:50:19;;;;;;;7.07;3.00;;;-0.30;99.90;;;;;;5033287;28;20040;-72
2023/02/09 06:52:45;;;;;;;10.95;3.22;;;-0.30;99.90;;;;;;5045137;28;20053;-72
2023/02/09 06:55:11;;;;;;;8.40;3.58;;;-0.20;99.90;;;;;;5026277;28;20498;-72
2023/02/09 06:57:37;;;;;;;12.32;4.00;;;-0.30;99.90;;;;;;5021451;28;20523;-72
2023/02/09 07:00:08;;;;;;;8.30;3.47;;;-0.30;99.90;;;;;;5023151;28;20037;-71
2023/02/09 07:02:33;;;;;;;;;;;-0.30;99.90;;;;;;5021989;28;20828;-72
2023/02/09 07:04:59;;;;;;;9.77;3.78;;;-0.20;99.90;;;;;;5018055;28;20211;-71
2023/02/09 07:07:24;;;;;;;6.65;3.28;;;-0.30;99.90;;;;;;5022524;28;20046;-71
2023/02/09 07:09:50;;;;;;;14.23;3.58;;;-0.20;99.90;;;;;;5023423;28;20095;-71
2023/02/09 07:12:16;;;;;;;8.52;3.88;;;-0.20;99.90;;;;;;5022016;28;20165;-72
2023/02/09 07:14:41;;;;;;;11.88;3.40;;;-0.20;99.90;;;;;;5019659;28;20124;-71
2023/02/09 07:17:07;;;;;;;7.95;3.33;;;-0.20;99.90;;;;;;5023403;28;20456;-72
2023/02/09 07:19:33;;;;;;;11.90;4.00;;;-0.30;99.90;;;;;;5021337;28;20053;-71
2023/02/09 07:21:58;;;;;;;7.95;3.42;;;-0.20;99.90;;;;;;5020386;28;20068;-71
2023/02/09 07:24:24;;;;;;;15.90;4.13;;;-0.20;99.90;;;;;;5013730;28;20048;-71
2023/02/09 07:26:49;;;;;;;9.68;4.05;;;-0.20;99.90;;;;;;5024706;28;21234;-72
2023/02/09 07:29:15;;;;;;;9.52;3.75;;;-0.20;99.90;;;;;;5020380;28;20038;-72
2023/02/09 07:31:42;;;;;;;17.10;4.63;;;-0.10;99.90;;;;;;5022948;28;20068;-72
2023/02/09 07:34:07;;;;;;;11.25;3.80;;;-0.10;99.90;;;;;;5018135;28;20047;-72
2023/02/09 07:36:33;;;;;;;9.38;3.47;;;-0.10;99.90;;;;;;5021413;28;20037;-71
2023/02/09 07:38:58;;;;;;;9.63;3.67;;;0.00;99.90;;;;;;5022302;28;20041;-71
2023/02/09 07:41:25;;;;;;;11.18;3.35;;;0.00;99.90;;;;;;5019285;28;20330;-73
2023/02/09 07:43:51;;;;;;;12.10;3.95;;;0.00;99.90;;;;;;5022107;28;20052;-72
2023/02/09 07:46:19;;;;;;;11.40;3.90;;;0.10;99.90;;;;;;5020784;28;20112;-73
2023/02/09 07:48:46;;;;;;;7.97;3.45;;;0.10;99.90;;;;;;5019375;28;20060;-71
2023/02/09 07:51:23;;;;;;;8.65;4.10;;;0.10;99.90;;;;;;5041980;28;20051;-72
2023/02/09 07:53:53;;;;;;;12.70;3.88;;;0.20;99.90;;;;;;5037234;28;20060;-72
2023/02/09 07:56:18;;;;;;;9.88;3.85;;;0.10;99.90;;;;;;5040042;28;20943;-71
2023/02/09 07:58:44;;;;;;;8.43;3.70;;;0.20;99.90;;;;;;5040362;28;20167;-72
2023/02/09 08:01:11;;;;;;;10.85;3.38;;;0.20;99.90;;;;;;5032023;28;20041;-71
2023/02/09 08:03:39;;;;;;;10.23;3.60;;;0.30;99.90;;;;;;5030726;28;20031;-72
2023/02/09 08:06:22;;;;;;;11.93;3.72;;;0.30;99.90;;;;;;5033871;28;20060;-71
2023/02/09 08:08:49;;;;;;;15.57;4.28;;;0.40;99.90;;;;;;5040006;28;20128;-72
2023/02/09 08:11:23;;;;;;;8.43;3.35;;;0.40;99.90;;;;;;5033248;28;20061;-74
2023/02/09 08:13:49;;;;;;;11.25;4.00;;;0.50;99.90;;;;;;5028360;28;20072;-72
2023/02/09 08:16:18;;;;;;;7.95;3.22;;;0.50;99.90;;;;;;5035419;28;20037;-72
2023/02/09 08:18:57;;;;;;;8.90;3.67;;;0.60;99.90;;;;;;5036932;28;20487;-74
2023/02/09 08:21:23;;;;;;;9.93;3.67;;;0.70;99.90;;;;;;5039450;28;20045;-72
2023/02/09 08:23:52;;;;;;;7.78;3.65;;;0.70;99.90;;;;;;5039883;28;20512;-71
2023/02/09 08:26:17;;;;;;;10.98;4.45;;;0.80;99.90;;;;;;5039989;28;20044;-71
2023/02/09 08:28:44;;;;;;;9.52;3.58;;;0.80;99.90;;;;;;5041872;28;20040;-71
2023/02/09 08:31:15;;;;;;;10.10;4.78;;;0.80;99.90;;;;;;5040432;28;20040;-72
2023/02/09 08:33:42;;;;;;;10.38;3.92;;;0.90;99.90;;;;;;5038989;28;20048;-72
2023/02/09 08:36:09;;;;;;;12.50;4.13;;;0.90;99.90;;;;;;5044387;28;20056;-71
2023/02/09 08:38:34;;;;;;;9.57;3.85;;;1.00;99.90;;;;;;5044863;28;20110;-72
2023/02/09 08:41:05;;;;;;;8.57;3.88;;;1.10;99.90;;;;;;5039437;28;20429;-72
2023/02/09 08:43:31;;;;;;;11.32;3.60;;;1.20;99.90;;;;;;5040747;28;20087;-73
2023/02/09 08:46:12;;;;;;;9.00;3.53;;;1.20;99.90;;;;;;5040525;28;20517;-73
2023/02/09 08:48:41;;;;;;;9.68;4.00;;;1.20;99.90;;;;;;5032971;28;20116;-71
2023/02/09 08:51:08;;;;;;;12.45;4.45;;;1.20;99.90;;;;;;5036633;28;20525;-72
2023/02/09 08:53:35;;;;;;;11.18;3.72;;;1.30;99.90;;;;;;5021618;28;20124;-72
2023/02/09 08:56:01;;;;;;;9.18;3.75;;;1.30;99.90;;;;;;5031980;28;20128;-71
2023/02/09 08:58:27;;;;;;;11.52;3.78;;;1.40;99.90;;;;;;5040237;28;20033;-72
2023/02/09 09:00:55;;;;;;;9.35;3.83;;;1.40;99.90;;;;;;5039286;28;20033;-71
2023/02/09 09:03:26;;;;;;;10.80;4.28;;;1.50;99.90;;;;;;5039952;28;20409;-71
2023/02/09 09:05:55;;;;;;;8.57;3.92;;;1.60;99.90;;;;;;5039866;28;20029;-71
2023/02/09 09:08:21;;;;;;;12.82;3.72;;;1.60;99.90;;;;;;5042664;28;20501;-73
2023/02/09 09:10:46;;;;;;;10.57;4.07;;;1.60;99.90;;;;;;5038410;28;20037;-71
2023/02/09 09:13:12;;;;;;;8.60;4.22;;;1.70;99.90;;;;;;5039761;28;20489;-71
2023/02/09 09:15:38;;;;;;;10.45;3.35;;;1.70;99.90;;;;;;5036118;28;20036;-74
2023/02/09 09:18:03;;;;;;;11.60;4.35;;;1.70;99.90;;;;;;5042467;28;20044;-73
2023/02/09 09:20:29;;;;;;;10.88;4.72;;;1.80;99.90;;;;;;5025030;28;20033;-72
2023/02/09 09:22:58;;;;;;;11.23;3.83;;;1.90;99.90;;;;;;5035328;28;20091;-72
2023/02/09 09:25:23;;;;;;;9.07;3.78;;;1.90;99.90;;;;;;5029291;28;20038;-72
2023/02/09 09:27:49;;;;;;;12.07;3.80;;;2.00;99.90;;;;;;5038941;28;20406;-71
2023/02/09 09:30:14;;;;;;;10.88;4.50;;;2.10;99.90;;;;;;5027502;28;20039;-72
2023/02/09 09:32:40;;;;;;;8.57;3.97;;;2.20;99.90;;;;;;5034582;28;20071;-72
2023/02/09 09:35:06;;;;;;;6.22;3.17;;;2.30;99.90;;;;;;5026041;28;20037;-72
2023/02/09 09:37:31;;;;;;;10.52;3.70;;;2.40;99.90;;;;;;5024288;28;20033;-71
2023/02/09 09:39:58;;;;;;;7.97;3.33;;;2.40;99.90;;;;;;5037105;28;20045;-71
2023/02/09 09:42:35;;;;;;;10.45;3.80;;;2.60;99.90;;;;;;5040354;28;20033;-71
2023/02/09 09:45:02;;;;;;;14.15;4.85;;;2.70;99.90;;;;;;5025430;28;20064;-71
2023/02/09 09:47:37;;;;;;;13.60;4.60;;;2.80;99.90;;;;;;5038634;28;20041;-72
2023/02/09 09:50:13;;;;;;;10.98;4.57;;;2.90;99.90;;;;;;5036172;28;20559;-71
2023/02/09 09:52:41;;;;;;;10.35;4.40;;;3.00;99.90;;;;;;5044693;28;20080;-72
2023/02/09 09:55:18;;;;;;;9.65;4.05;;;3.00;99.90;;;;;;5030052;28;20091;-72
2023/02/09 09:57:44;;;;;;;10.00;4.05;;;3.10;99.90;;;;;;5033703;28;20092;-72
2023/02/09 10:00:24;;;;;;;9.38;4.18;;;3.20;99.90;;;;;;5034994;28;20044;-72
2023/02/09 10:02:49;;;;;;;20.30;5.28;;;3.30;99.90;;;;;;5047996;28;20116;-72
2023/02/09 10:05:27;;;;;;;11.70;4.22;;;3.40;99.90;;;;;;5040889;28;20558;-73
2023/02/09 10:07:55;;;;;;;15.55;5.05;;;3.50;99.90;;;;;;5039516;28;20045;-72
2023/02/09 10:10:50;;;;;;;14.93;4.75;;;3.60;99.90;;;;;;5044779;28;20078;-72
2023/02/09 10:13:23;;;;;;;12.43;4.90;;;3.70;99.90;;;;;;5031061;28;20068;-72
2023/02/09 10:15:55;;;;;;;11.80;5.32;;;3.60;99.90;;;;;;5041252;28;20064;-73
2023/02/09 10:18:24;;;;;;;11.82;4.97;;;3.70;99.90;;;;;;5043013;28;20029;-73
2023/02/09 10:20:53;;;;;;;13.80;4.30;;;3.70;99.90;;;;;;5043362;28;20127;-73
2023/02/09 10:23:22;;;;;;;13.18;4.65;;;3.80;99.90;;;;;;5044784;28;20029;-73
2023/02/09 10:25:53;;;;;;;12.45;4.68;;;3.70;99.90;;;;;;5039952;28;20039;-73
2023/02/09 10:28:21;;;;;;;10.30;5.13;;;3.70;99.90;;;;;;5043270;28;20086;-72
2023/02/09 10:30:50;;;;;;;10.77;4.72;;;3.70;99.90;;;;;;5042346;28;20032;-74
2023/02/09 10:33:16;;;;;;;9.52;4.65;;;3.70;99.90;;;;;;5045321;28;20032;-73
2023/02/09 10:35:46;;;;;;;9.00;4.50;;;3.70;99.90;;;;;;5042139;28;20050;-71
2023/02/09 10:38:16;;;;;;;15.50;5.97;;;3.70;99.90;;;;;;5043248;28;20027;-72
2023/02/09 10:40:42;;;;;;;12.20;4.85;;;3.80;99.90;;;;;;5040593;28;20066;-71
2023/02/09 10:43:23;;;;;;;10.23;3.97;;;3.70;99.90;;;;;;5038931;28;20511;-73
2023/02/09 10:45:55;;;;;;;9.95;3.70;;;3.80;99.90;;;;;;5033899;28;20045;-72
2023/02/09 10:48:22;;;;;;;11.35;4.55;;;3.80;99.90;;;;;;5032863;28;20801;-71
2023/02/09 10:50:57;;;;;;;14.23;5.55;;;3.80;99.90;;;;;;5031560;28;20512;-72
2023/02/09 10:53:33;;;;;;;14.27;5.65;;;3.90;99.90;;;;;;5039798;28;20058;-72
2023/02/09 10:56:18;;;;;;;15.65;5.10;;;3.90;99.90;;;;;;5040249;28;20043;-72
2023/02/09 10:58:59;;;;;;;13.15;4.97;;;3.80;99.90;;;;;;5032093;28;20025;-72
2023/02/09 11:01:29;;;;;;;10.93;4.85;;;3.80;99.90;;;;;;5026757;28;20131;-72
2023/02/09 11:04:18;;;;;;;13.80;5.03;;;3.80;99.90;;;;;;5022805;28;20072;-72
2023/02/09 11:07:02;;;;;;;11.10;5.10;;;3.90;99.90;;;;;;5025727;28;20033;-72
2023/02/09 11:09:34;;;;;;;10.63;5.18;;;3.90;99.90;;;;;;5041651;28;20037;-72
2023/02/09 11:12:00;;;;;;;12.48;5.60;;;4.00;99.90;;;;;;5044386;28;20045;-71
2023/02/09 11:14:27;;;;;;;11.02;4.70;;;4.00;99.90;;;;;;5034711;28;20096;-71
2023/02/09 11:17:14;;;;;;;13.23;5.07;;;4.20;99.90;;;;;;5042442;28;20432;-72
2023/02/09 11:20:00;;;;;;;12.10;5.25;;;4.30;99.90;;;;;;5033088;28;20037;-71
2023/02/09 11:22:43;;;;;;;11.38;5.38;;;4.30;99.90;;;;;;5037038;28;20052;-76
2023/02/09 11:25:24;;;;;;;11.27;4.60;;;4.40;99.90;;;;;;5021461;28;20036;-72
2023/02/09 11:28:01;;;;;;;17.42;6.25;;;4.40;99.90;;;;;;5040941;28;20040;-71
2023/02/09 11:30:33;;;;;;;10.68;4.85;;;4.50;99.90;;;;;;5035378;28;20401;-72
2023/02/09 11:33:22;;;;;;;15.23;5.65;;;4.60;99.90;;;;;;5019796;28;20098;-72
2023/02/09 11:36:00;;;;;;;10.40;5.30;;;4.70;99.90;;;;;;5043705;28;20033;-73
2023/02/09 11:38:39;;;;;;;11.50;5.53;;;4.90;99.90;;;;;;5038992;28;20040;-71
2023/02/09 11:43:59;;;;;;;11.27;5.05;;;5.40;99.90;;;;;;5032821;28;20068;-71
2023/02/09 11:46:29;;;;;;;10.70;4.78;;;5.30;99.90;;;;;;5026698;28;20040;-71
2023/02/09 11:49:01;;;;;;;11.00;4.82;;;5.20;99.90;;;;;;5030915;28;20491;-71
2023/02/09 11:51:27;;;;;;;16.73;5.20;;;5.20;99.90;;;;;;5036289;28;20417;-71
2023/02/09 11:54:02;;;;;;;9.57;5.05;;;5.00;99.90;;;;;;5040984;28;20049;-72
2023/02/09 11:56:28;;;;;;;13.32;5.20;;;5.00;99.90;;;;;;5037481;28;20044;-71
2023/02/09 11:58:56;;;;;;;15.50;5.63;;;4.90;99.90;;;;;;5025116;28;20033;-73
2023/02/09 12:01:59;;;;;;;12.77;5.85;;;4.90;99.90;;;;;;5033537;28;20044;-72
2023/02/09 12:04:47;;;;;;;13.77;5.65;;;5.00;99.90;;;;;;5029414;28;20108;-72
2023/02/09 12:07:31;;;;;;;16.55;5.95;;;4.90;99.90;;;;;;5039153;28;20138;-72
2023/02/09 12:10:22;;;;;;;16.02;5.78;;;5.00;99.90;;;;;;5036435;28;20045;-71
2023/02/09 12:12:50;;;;;;;12.90;5.57;;;5.20;99.90;;;;;;5040376;28;20367;-71
2023/02/09 12:15:32;;;;;;;12.93;5.88;;;5.10;99.90;;;;;;5035520;28;20401;-72
2023/02/09 12:18:00;;;;;;;15.88;6.28;;;5.20;99.90;;;;;;5058071;28;20415;-72
2023/02/09 12:20:37;;;;;;;12.80;5.30;;;5.20;99.90;;;;;;5041419;28;20033;-71
2023/02/09 12:23:31;;;;;;;14.73;5.43;;;5.10;99.90;;;;;;5038854;28;20152;-72
2023/02/09 12:25:58;;;;;;;14.75;5.85;;;5.10;99.90;;;;;;5039555;28;20497;-72
2023/02/09 12:28:26;;;;;;;17.77;6.80;;;5.20;99.90;;;;;;5040115;28;20102;-73
2023/02/09 12:30:52;;;;;;;11.80;5.85;;;5.20;99.90;;;;;;5035389;28;20029;-72
2023/02/09 12:33:23;;;;;;;16.90;6.72;;;5.30;99.90;;;;;;5040670;28;20074;-72
2023/02/09 12:36:11;;;;;;;15.30;5.93;;;5.40;99.90;;;;;;5054115;28;20342;-72
2023/02/09 12:39:02;;;;;;;18.05;6.47;;;5.40;99.90;;;;;;5040054;28;21076;-72
2023/02/09 12:41:37;;;;;;;12.63;5.65;;;5.40;99.90;;;;;;5042839;28;20047;-73
2023/02/09 12:44:09;;;;;;;15.27;7.18;;;5.40;99.90;;;;;;5037390;28;20099;-71
2023/02/09 12:46:44;;;;;;;14.80;5.95;;;5.50;99.90;;;;;;5038312;28;20773;-73
2023/02/09 12:49:19;;;;;;;14.95;6.00;;;5.60;99.90;;;;;;5039014;28;20053;-72
2023/02/09 12:51:51;;;;;;;13.10;6.35;;;5.60;99.90;;;;;;5038508;28;20339;-72
2023/02/09 12:54:48;;;;;;;12.55;5.63;;;5.70;99.90;;;;;;5036861;28;20194;-72
2023/02/09 12:57:13;;;;;;;15.23;6.22;;;5.80;99.90;;;;;;5037499;28;20125;-71
2023/02/09 12:59:48;;;;;;;12.02;5.93;;;5.90;99.90;;;;;;5039518;28;20561;-71
2023/02/09 13:02:22;;;;;;;12.82;5.28;;;5.90;99.90;;;;;;5038272;28;20187;-72
2023/02/09 13:05:25;;;;;;;13.15;5.95;;;6.00;99.90;;;;;;5039699;28;20032;-71
2023/02/09 13:08:05;;;;;;;19.17;7.22;;;5.90;99.90;;;;;;5036782;28;20049;-72
2023/02/09 13:10:47;;;;;;;16.90;7.22;;;5.90;99.90;;;;;;5038366;28;20455;-71
2023/02/09 13:13:33;;;;;;;15.40;6.40;;;6.00;99.90;;;;;;5038673;28;20044;-71